Aviation Digital Data Service (ADDS)

Output produced by METARs form (0435 UTC 19 August 2019)
found at http://www.aviationweather.gov/metar/data/
 
METAR text: KVNY 190351Z 12003KT 10SM CLR 23/15 A2988 RMK AO2 SLP110 T02280150
Conditions at: KVNY (VAN NUYS , CA, US) observed 0351 UTC 19 August 2019
Temperature: 22.8°C (73°F)
Dewpoint: 15.0°C (59°F) [RH = 61%]
Pressure (altimeter): 29.88 inches Hg (1011.9 mb)
[Sea-level pressure: 1011.0 mb]
Winds: from the ESE (120 degrees) at 3 MPH (3 knots; 1.5 m/s)
Visibility: 10 or more miles (16+ km)
Ceiling: at least 12,000 feet AGL
Clouds: sky clear below 12,000 feet AGL
Weather: no significant weather observed at this time

METAR text: KVNY 190251Z 12004KT 10SM CLR 24/14 A2986 RMK AO2 SLP104 T02440139 53002
Conditions at: KVNY (VAN NUYS , CA, US) observed 0251 UTC 19 August 2019
Temperature: 24.4°C (76°F)
Dewpoint: 13.9°C (57°F) [RH = 52%]
Pressure (altimeter): 29.86 inches Hg (1011.3 mb)
[Sea-level pressure: 1010.4 mb]
Winds: from the ESE (120 degrees) at 5 MPH (4 knots; 2.1 m/s)
Visibility: 10 or more miles (16+ km)
Ceiling: at least 12,000 feet AGL
Clouds: sky clear below 12,000 feet AGL
Weather: no significant weather observed at this time

METAR text: KVNY 190151Z 17008KT 10SM CLR 26/10 A2985 RMK AO2 SLP100 T02610100
Conditions at: KVNY (VAN NUYS , CA, US) observed 0151 UTC 19 August 2019
Temperature: 26.1°C (79°F)
Dewpoint: 10.0°C (50°F) [RH = 36%]
Pressure (altimeter): 29.85 inches Hg (1010.9 mb)
[Sea-level pressure: 1010.0 mb]
Winds: from the S (170 degrees) at 9 MPH (8 knots; 4.1 m/s)
Visibility: 10 or more miles (16+ km)
Ceiling: at least 12,000 feet AGL
Clouds: sky clear below 12,000 feet AGL
Weather: no significant weather observed at this time

METAR text: KVNY 190051Z 17010KT 10SM CLR 28/07 A2985 RMK AO2 SLP098 T02830067
Conditions at: KVNY (VAN NUYS , CA, US) observed 0051 UTC 19 August 2019
Temperature: 28.3°C (83°F)
Dewpoint: 6.7°C (44°F) [RH = 26%]
Pressure (altimeter): 29.85 inches Hg (1010.9 mb)
[Sea-level pressure: 1009.8 mb]
Winds: from the S (170 degrees) at 12 MPH (10 knots; 5.1 m/s)
Visibility: 10 or more miles (16+ km)
Ceiling: at least 12,000 feet AGL
Clouds: sky clear below 12,000 feet AGL
Weather: no significant weather observed at this time

METAR text: KVNY 182351Z VRB05KT 10SM CLR 30/10 A2986 RMK AO2 SLP100 T03000100 10306 20228 56018
Conditions at: KVNY (VAN NUYS , CA, US) observed 2351 UTC 18 August 2019
Temperature: 30.0°C (86°F)
Dewpoint: 10.0°C (50°F) [RH = 29%]
Pressure (altimeter): 29.86 inches Hg (1011.3 mb)
[Sea-level pressure: 1010.0 mb]
Winds: variable direction winds at 6 MPH (5 knots; 2.6 m/s)
Visibility: 10 or more miles (16+ km)
Ceiling: at least 12,000 feet AGL
Clouds: sky clear below 12,000 feet AGL
Weather: no significant weather observed at this time

METAR text: KVNY 182251Z 17009KT 10SM SCT200 30/12 A2986 RMK AO2 SLP103 T03000122
Conditions at: KVNY (VAN NUYS , CA, US) observed 2251 UTC 18 August 2019
Temperature: 30.0°C (86°F)
Dewpoint: 12.2°C (54°F) [RH = 33%]
Pressure (altimeter): 29.86 inches Hg (1011.3 mb)
[Sea-level pressure: 1010.3 mb]
Winds: from the S (170 degrees) at 10 MPH (9 knots; 4.6 m/s)
Visibility: 10 or more miles (16+ km)
Ceiling: at least 12,000 feet AGL
Clouds: scattered clouds at 20000 feet AGL
Weather: no significant weather observed at this time

METAR text: KVNY 182151Z 15007KT 10SM SCT200 29/14 A2988 RMK AO2 SLP110 T02890139
Conditions at: KVNY (VAN NUYS , CA, US) observed 2151 UTC 18 August 2019
Temperature: 28.9°C (84°F)
Dewpoint: 13.9°C (57°F) [RH = 40%]
Pressure (altimeter): 29.88 inches Hg (1011.9 mb)
[Sea-level pressure: 1011.0 mb]
Winds: from the SSE (150 degrees) at 8 MPH (7 knots; 3.6 m/s)
Visibility: 10 or more miles (16+ km)
Ceiling: at least 12,000 feet AGL
Clouds: scattered clouds at 20000 feet AGL
Weather: no significant weather observed at this time

METAR text: KVNY 182051Z VRB04KT 10SM CLR 27/15 A2991 RMK AO2 SLP120 T02720150 58012
Conditions at: KVNY (VAN NUYS , CA, US) observed 2051 UTC 18 August 2019
Temperature: 27.2°C (81°F)
Dewpoint: 15.0°C (59°F) [RH = 47%]
Pressure (altimeter): 29.91 inches Hg (1013.0 mb)
[Sea-level pressure: 1012.0 mb]
Winds: variable direction winds at 5 MPH (4 knots; 2.1 m/s)
Visibility: 10 or more miles (16+ km)
Ceiling: at least 12,000 feet AGL
Clouds: sky clear below 12,000 feet AGL
Weather: no significant weather observed at this time

METAR text: KVNY 181951Z 00000KT 10SM CLR 26/16 A2992 RMK AO2 SLP125 T02610156
Conditions at: KVNY (VAN NUYS , CA, US) observed 1951 UTC 18 August 2019
Temperature: 26.1°C (79°F)
Dewpoint: 15.6°C (60°F) [RH = 52%]
Pressure (altimeter): 29.92 inches Hg (1013.3 mb)
[Sea-level pressure: 1012.5 mb]
Winds: calm
Visibility: 10 or more miles (16+ km)
Ceiling: at least 12,000 feet AGL
Clouds: sky clear below 12,000 feet AGL
Weather: no significant weather observed at this time

METAR text: KVNY 181851Z 18003KT 10SM CLR 24/16 A2994 RMK AO2 SLP130 T02390156
Conditions at: KVNY (VAN NUYS , CA, US) observed 1851 UTC 18 August 2019
Temperature: 23.9°C (75°F)
Dewpoint: 15.6°C (60°F) [RH = 60%]
Pressure (altimeter): 29.94 inches Hg (1014.0 mb)
[Sea-level pressure: 1013.0 mb]
Winds: from the S (180 degrees) at 3 MPH (3 knots; 1.5 m/s)
Visibility: 10 or more miles (16+ km)
Ceiling: at least 12,000 feet AGL
Clouds: sky clear below 12,000 feet AGL
Weather: no significant weather observed at this time

METAR text: KVNY 181751Z VRB03KT 10SM CLR 23/15 A2995 RMK AO2 SLP133 T02280150 10228 20178 51009
Conditions at: KVNY (VAN NUYS , CA, US) observed 1751 UTC 18 August 2019
Temperature: 22.8°C (73°F)
Dewpoint: 15.0°C (59°F) [RH = 61%]
Pressure (altimeter): 29.95 inches Hg (1014.3 mb)
[Sea-level pressure: 1013.3 mb]
Winds: variable direction winds at 3 MPH (3 knots; 1.5 m/s)
Visibility: 10 or more miles (16+ km)
Ceiling: at least 12,000 feet AGL
Clouds: sky clear below 12,000 feet AGL
Weather: no significant weather observed at this time

METAR text: KVNY 181732Z 00000KT 10SM SCT022 22/15 A2994 RMK AO2 T02220150
Conditions at: KVNY (VAN NUYS , CA, US) observed 1732 UTC 18 August 2019
Temperature: 22.2°C (72°F)
Dewpoint: 15.0°C (59°F) [RH = 64%]
Pressure (altimeter): 29.94 inches Hg (1014.0 mb)
Winds: calm
Visibility: 10 or more miles (16+ km)
Ceiling: at least 12,000 feet AGL
Clouds: scattered clouds at 2200 feet AGL
Weather: no significant weather observed at this time

METAR text: KVNY 181651Z 13004KT 10SM BKN019 21/14 A2994 RMK AO2 SLP131 T02110144
Conditions at: KVNY (VAN NUYS , CA, US) observed 1651 UTC 18 August 2019
Temperature: 21.1°C (70°F)
Dewpoint: 14.4°C (58°F) [RH = 66%]
Pressure (altimeter): 29.94 inches Hg (1014.0 mb)
[Sea-level pressure: 1013.1 mb]
Winds: from the SE (130 degrees) at 5 MPH (4 knots; 2.1 m/s)
Visibility: 10 or more miles (16+ km)
Ceiling: 1900 feet AGL
Clouds: broken clouds at 1900 feet AGL
Weather: no significant weather observed at this time

METAR text: KVNY 181551Z VRB04KT 10SM OVC017 19/14 A2993 RMK AO2 SLP127 T01940144
Conditions at: KVNY (VAN NUYS , CA, US) observed 1551 UTC 18 August 2019
Temperature: 19.4°C (67°F)
Dewpoint: 14.4°C (58°F) [RH = 73%]
Pressure (altimeter): 29.93 inches Hg (1013.6 mb)
[Sea-level pressure: 1012.7 mb]
Winds: variable direction winds at 5 MPH (4 knots; 2.1 m/s)
Visibility: 10 or more miles (16+ km)
Ceiling: 1700 feet AGL
Clouds: overcast cloud deck at 1700 feet AGL
Weather: no significant weather observed at this time

METAR text: KVNY 181451Z VRB03KT 10SM OVC016 19/14 A2992 RMK AO2 SLP124 T01890144 53013
Conditions at: KVNY (VAN NUYS , CA, US) observed 1451 UTC 18 August 2019
Temperature: 18.9°C (66°F)
Dewpoint: 14.4°C (58°F) [RH = 75%]
Pressure (altimeter): 29.92 inches Hg (1013.3 mb)
[Sea-level pressure: 1012.4 mb]
Winds: variable direction winds at 3 MPH (3 knots; 1.5 m/s)
Visibility: 10 or more miles (16+ km)
Ceiling: 1600 feet AGL
Clouds: overcast cloud deck at 1600 feet AGL
Weather: no significant weather observed at this time

METAR text: KVNY 181351Z 09005KT 9SM OVC016 18/14 A2990 RMK AO2 SLP118 T01830144
Conditions at: KVNY (VAN NUYS , CA, US) observed 1351 UTC 18 August 2019
Temperature: 18.3°C (65°F)
Dewpoint: 14.4°C (58°F) [RH = 78%]
Pressure (altimeter): 29.90 inches Hg (1012.6 mb)
[Sea-level pressure: 1011.8 mb]
Winds: from the E (90 degrees) at 6 MPH (5 knots; 2.6 m/s)
Visibility: 9 miles (14 km)
Ceiling: 1600 feet AGL
Clouds: overcast cloud deck at 1600 feet AGL
Weather: no significant weather observed at this time

METAR text: KVNY 181251Z 13003KT 10SM OVC015 18/14 A2988 RMK AO2 SLP111 T01830144
Conditions at: KVNY (VAN NUYS , CA, US) observed 1251 UTC 18 August 2019
Temperature: 18.3°C (65°F)
Dewpoint: 14.4°C (58°F) [RH = 78%]
Pressure (altimeter): 29.88 inches Hg (1011.9 mb)
[Sea-level pressure: 1011.1 mb]
Winds: from the SE (130 degrees) at 3 MPH (3 knots; 1.5 m/s)
Visibility: 10 or more miles (16+ km)
Ceiling: 1500 feet AGL
Clouds: overcast cloud deck at 1500 feet AGL
Weather: no significant weather observed at this time

METAR text: KVNY 181204Z AUTO 15003KT 10SM OVC015 18/14 A2988 RMK AO2 T01830144
Conditions at: KVNY (VAN NUYS , CA, US) observed 1204 UTC 18 August 2019
Temperature: 18.3°C (65°F)
Dewpoint: 14.4°C (58°F) [RH = 78%]
Pressure (altimeter): 29.88 inches Hg (1011.9 mb)
Winds: from the SSE (150 degrees) at 3 MPH (3 knots; 1.5 m/s)
Visibility: 10 or more miles (16+ km)
Ceiling: 1500 feet AGL
Clouds: overcast cloud deck at 1500 feet AGL
Weather: automated observation with no human augmentation;
there may or may not be significant weather present at this time

METAR text: KVNY 181151Z AUTO 00000KT 10SM OVC014 18/14 A2988 RMK AO2 SLP109 T01780144 10183 20167 58001
Conditions at: KVNY (VAN NUYS , CA, US) observed 1151 UTC 18 August 2019
Temperature: 17.8°C (64°F)
Dewpoint: 14.4°C (58°F) [RH = 80%]
Pressure (altimeter): 29.88 inches Hg (1011.9 mb)
[Sea-level pressure: 1010.9 mb]
Winds: calm
Visibility: 10 or more miles (16+ km)
Ceiling: 1400 feet AGL
Clouds: overcast cloud deck at 1400 feet AGL
Weather: automated observation with no human augmentation;
there may or may not be significant weather present at this time

METAR text: KVNY 181051Z AUTO 00000KT 10SM OVC014 18/15 A2988 RMK AO2 SLP111 T01830150
Conditions at: KVNY (VAN NUYS , CA, US) observed 1051 UTC 18 August 2019
Temperature: 18.3°C (65°F)
Dewpoint: 15.0°C (59°F) [RH = 81%]
Pressure (altimeter): 29.88 inches Hg (1011.9 mb)
[Sea-level pressure: 1011.1 mb]
Winds: calm
Visibility: 10 or more miles (16+ km)
Ceiling: 1400 feet AGL
Clouds: overcast cloud deck at 1400 feet AGL
Weather: automated observation with no human augmentation;
there may or may not be significant weather present at this time

METAR text: KVNY 181016Z AUTO 10004KT 10SM OVC010 18/15 A2989 RMK AO2 CIG 008V012 T01780150
Conditions at: KVNY (VAN NUYS , CA, US) observed 1016 UTC 18 August 2019
Temperature: 17.8°C (64°F)
Dewpoint: 15.0°C (59°F) [RH = 84%]
Pressure (altimeter): 29.89 inches Hg (1012.3 mb)
Winds: from the E (100 degrees) at 5 MPH (4 knots; 2.1 m/s)
Visibility: 10 or more miles (16+ km)
Ceiling: 1000 feet AGL
Clouds: overcast cloud deck at 1000 feet AGL
Weather: automated observation with no human augmentation;
there may or may not be significant weather present at this time

METAR text: KVNY 180951Z AUTO 00000KT 10SM OVC008 18/16 A2989 RMK AO2 SLP113 T01780156
Conditions at: KVNY (VAN NUYS , CA, US) observed 0951 UTC 18 August 2019
Temperature: 17.8°C (64°F)
Dewpoint: 15.6°C (60°F) [RH = 87%]
Pressure (altimeter): 29.89 inches Hg (1012.3 mb)
[Sea-level pressure: 1011.3 mb]
Winds: calm
Visibility: 10 or more miles (16+ km)
Ceiling: 800 feet AGL
Clouds: overcast cloud deck at 800 feet AGL
Weather: automated observation with no human augmentation;
there may or may not be significant weather present at this time

METAR text: KVNY 180851Z AUTO VRB04KT 9SM OVC008 17/16 A2988 RMK AO2 SLP111 T01720156 52000
Conditions at: KVNY (VAN NUYS , CA, US) observed 0851 UTC 18 August 2019
Temperature: 17.2°C (63°F)
Dewpoint: 15.6°C (60°F) [RH = 90%]
Pressure (altimeter): 29.88 inches Hg (1011.9 mb)
[Sea-level pressure: 1011.1 mb]
Winds: variable direction winds at 5 MPH (4 knots; 2.1 m/s)
Visibility: 9 miles (14 km)
Ceiling: 800 feet AGL
Clouds: overcast cloud deck at 800 feet AGL
Weather: automated observation with no human augmentation;
there may or may not be significant weather present at this time

METAR text: KVNY 180814Z AUTO 15004KT 10SM BKN008 17/15 A2989 RMK AO2 T01720150
Conditions at: KVNY (VAN NUYS , CA, US) observed 0814 UTC 18 August 2019
Temperature: 17.2°C (63°F)
Dewpoint: 15.0°C (59°F) [RH = 87%]
Pressure (altimeter): 29.89 inches Hg (1012.3 mb)
Winds: from the SSE (150 degrees) at 5 MPH (4 knots; 2.1 m/s)
Visibility: 10 or more miles (16+ km)
Ceiling: 800 feet AGL
Clouds: broken clouds at 800 feet AGL
Weather: automated observation with no human augmentation;
there may or may not be significant weather present at this time

METAR text: KVNY 180751Z AUTO 14003KT 10SM FEW008 17/15 A2988 RMK AO2 SLP111 T01720150 402940172
Conditions at: KVNY (VAN NUYS , CA, US) observed 0751 UTC 18 August 2019
Temperature: 17.2°C (63°F)
Dewpoint: 15.0°C (59°F) [RH = 87%]
Pressure (altimeter): 29.88 inches Hg (1011.9 mb)
[Sea-level pressure: 1011.1 mb]
Winds: from the SE (140 degrees) at 3 MPH (3 knots; 1.5 m/s)
Visibility: 10 or more miles (16+ km)
Ceiling: at least 12,000 feet AGL
Clouds: few clouds at 800 feet AGL
Weather: automated observation with no human augmentation;
there may or may not be significant weather present at this time

METAR text: KVNY 180738Z AUTO 13003KT 10SM FEW008 17/15 A2989 RMK AO2 T01720150
Conditions at: KVNY (VAN NUYS , CA, US) observed 0738 UTC 18 August 2019
Temperature: 17.2°C (63°F)
Dewpoint: 15.0°C (59°F) [RH = 87%]
Pressure (altimeter): 29.89 inches Hg (1012.3 mb)
Winds: from the SE (130 degrees) at 3 MPH (3 knots; 1.5 m/s)
Visibility: 10 or more miles (16+ km)
Ceiling: at least 12,000 feet AGL
Clouds: few clouds at 800 feet AGL
Weather: automated observation with no human augmentation;
there may or may not be significant weather present at this time

METAR text: KVNY 180651Z AUTO 12003KT 10SM CLR 17/15 A2988 RMK AO2 SLP111 T01720150
Conditions at: KVNY (VAN NUYS , CA, US) observed 0651 UTC 18 August 2019
Temperature: 17.2°C (63°F)
Dewpoint: 15.0°C (59°F) [RH = 87%]
Pressure (altimeter): 29.88 inches Hg (1011.9 mb)
[Sea-level pressure: 1011.1 mb]
Winds: from the ESE (120 degrees) at 3 MPH (3 knots; 1.5 m/s)
Visibility: 10 or more miles (16+ km)
Ceiling: at least 12,000 feet AGL
Clouds: sky clear below 12,000 feet AGL
Weather: automated observation with no human augmentation;
there may or may not be significant weather present at this time

METAR text: KVNY 180551Z AUTO 13005KT 10SM CLR 18/15 A2988 RMK AO2 SLP112 T01780150 10283 20178 51016
Conditions at: KVNY (VAN NUYS , CA, US) observed 0551 UTC 18 August 2019
Temperature: 17.8°C (64°F)
Dewpoint: 15.0°C (59°F) [RH = 84%]
Pressure (altimeter): 29.88 inches Hg (1011.9 mb)
[Sea-level pressure: 1011.2 mb]
Winds: from the SE (130 degrees) at 6 MPH (5 knots; 2.6 m/s)
Visibility: 10 or more miles (16+ km)
Ceiling: at least 12,000 feet AGL
Clouds: sky clear below 12,000 feet AGL
Weather: automated observation with no human augmentation;
there may or may not be significant weather present at this time

METAR text: KVNY 180451Z AUTO 13004KT 10SM CLR 19/15 A2987 RMK AO2 SLP108 T01940150
Conditions at: KVNY (VAN NUYS , CA, US) observed 0451 UTC 18 August 2019
Temperature: 19.4°C (67°F)
Dewpoint: 15.0°C (59°F) [RH = 76%]
Pressure (altimeter): 29.87 inches Hg (1011.6 mb)
[Sea-level pressure: 1010.8 mb]
Winds: from the SE (130 degrees) at 5 MPH (4 knots; 2.1 m/s)
Visibility: 10 or more miles (16+ km)
Ceiling: at least 12,000 feet AGL
Clouds: sky clear below 12,000 feet AGL
Weather: automated observation with no human augmentation;
there may or may not be significant weather present at this time

METAR text: KVNY 180351Z 12004KT 10SM CLR 21/15 A2985 RMK AO2 SLP102 T02110150
Conditions at: KVNY (VAN NUYS , CA, US) observed 0351 UTC 18 August 2019
Temperature: 21.1°C (70°F)
Dewpoint: 15.0°C (59°F) [RH = 68%]
Pressure (altimeter): 29.85 inches Hg (1010.9 mb)
[Sea-level pressure: 1010.2 mb]
Winds: from the ESE (120 degrees) at 5 MPH (4 knots; 2.1 m/s)
Visibility: 10 or more miles (16+ km)
Ceiling: at least 12,000 feet AGL
Clouds: sky clear below 12,000 feet AGL
Weather: no significant weather observed at this time

METAR text: KVNY 180251Z 13005KT 10SM CLR 22/14 A2984 RMK AO2 SLP096 T02220144 53004
Conditions at: KVNY (VAN NUYS , CA, US) observed 0251 UTC 18 August 2019
Temperature: 22.2°C (72°F)
Dewpoint: 14.4°C (58°F) [RH = 61%]
Pressure (altimeter): 29.84 inches Hg (1010.6 mb)
[Sea-level pressure: 1009.6 mb]
Winds: from the SE (130 degrees) at 6 MPH (5 knots; 2.6 m/s)
Visibility: 10 or more miles (16+ km)
Ceiling: at least 12,000 feet AGL
Clouds: sky clear below 12,000 feet AGL
Weather: no significant weather observed at this time

METAR text: KVNY 180151Z 15008KT 10SM CLR 24/13 A2982 RMK AO2 SLP090 T02440133
Conditions at: KVNY (VAN NUYS , CA, US) observed 0151 UTC 18 August 2019
Temperature: 24.4°C (76°F)
Dewpoint: 13.3°C (56°F) [RH = 50%]
Pressure (altimeter): 29.82 inches Hg (1009.9 mb)
[Sea-level pressure: 1009.0 mb]
Winds: from the SSE (150 degrees) at 9 MPH (8 knots; 4.1 m/s)
Visibility: 10 or more miles (16+ km)
Ceiling: at least 12,000 feet AGL
Clouds: sky clear below 12,000 feet AGL
Weather: no significant weather observed at this time

METAR text: KVNY 180051Z 14008KT 10SM CLR 27/13 A2982 RMK AO2 SLP089 T02720128
Conditions at: KVNY (VAN NUYS , CA, US) observed 0051 UTC 18 August 2019
Temperature: 27.2°C (81°F)
Dewpoint: 12.8°C (55°F) [RH = 41%]
Pressure (altimeter): 29.82 inches Hg (1009.9 mb)
[Sea-level pressure: 1008.9 mb]
Winds: from the SE (140 degrees) at 9 MPH (8 knots; 4.1 m/s)
Visibility: 10 or more miles (16+ km)
Ceiling: at least 12,000 feet AGL
Clouds: sky clear below 12,000 feet AGL
Weather: no significant weather observed at this time

METAR text: KVNY 172351Z 15007KT 10SM CLR 28/13 A2982 RMK AO2 SLP090 T02830128 10294 20217 56018
Conditions at: KVNY (VAN NUYS , CA, US) observed 2351 UTC 17 August 2019
Temperature: 28.3°C (83°F)
Dewpoint: 12.8°C (55°F) [RH = 38%]
Pressure (altimeter): 29.82 inches Hg (1009.9 mb)
[Sea-level pressure: 1009.0 mb]
Winds: from the SSE (150 degrees) at 8 MPH (7 knots; 3.6 m/s)
Visibility: 10 or more miles (16+ km)
Ceiling: at least 12,000 feet AGL
Clouds: sky clear below 12,000 feet AGL
Weather: no significant weather observed at this time

METAR text: KVNY 172251Z 17010KT 10SM CLR 28/13 A2984 RMK AO2 SLP096 T02830128
Conditions at: KVNY (VAN NUYS , CA, US) observed 2251 UTC 17 August 2019
Temperature: 28.3°C (83°F)
Dewpoint: 12.8°C (55°F) [RH = 38%]
Pressure (altimeter): 29.84 inches Hg (1010.6 mb)
[Sea-level pressure: 1009.6 mb]
Winds: from the S (170 degrees) at 12 MPH (10 knots; 5.1 m/s)
Visibility: 10 or more miles (16+ km)
Ceiling: at least 12,000 feet AGL
Clouds: sky clear below 12,000 feet AGL
Weather: no significant weather observed at this time

METAR text: KVNY 172151Z 14006KT 10SM CLR 28/13 A2986 RMK AO2 SLP102 T02830128
Conditions at: KVNY (VAN NUYS , CA, US) observed 2151 UTC 17 August 2019
Temperature: 28.3°C (83°F)
Dewpoint: 12.8°C (55°F) [RH = 38%]
Pressure (altimeter): 29.86 inches Hg (1011.3 mb)
[Sea-level pressure: 1010.2 mb]
Winds: from the SE (140 degrees) at 7 MPH (6 knots; 3.1 m/s)
Visibility: 10 or more miles (16+ km)
Ceiling: at least 12,000 feet AGL
Clouds: sky clear below 12,000 feet AGL
Weather: no significant weather observed at this time

METAR text: KVNY 172051Z VRB06KT 10SM CLR 28/14 A2988 RMK AO2 SLP110 T02780139 58015
Conditions at: KVNY (VAN NUYS , CA, US) observed 2051 UTC 17 August 2019
Temperature: 27.8°C (82°F)
Dewpoint: 13.9°C (57°F) [RH = 43%]
Pressure (altimeter): 29.88 inches Hg (1011.9 mb)
[Sea-level pressure: 1011.0 mb]
Winds: variable direction winds at 7 MPH (6 knots; 3.1 m/s)
Visibility: 10 or more miles (16+ km)
Ceiling: at least 12,000 feet AGL
Clouds: sky clear below 12,000 feet AGL
Weather: no significant weather observed at this time

METAR text: KVNY 171951Z 16006KT 10SM CLR 27/13 A2990 RMK AO2 SLP115 T02720133
Conditions at: KVNY (VAN NUYS , CA, US) observed 1951 UTC 17 August 2019
Temperature: 27.2°C (81°F)
Dewpoint: 13.3°C (56°F) [RH = 42%]
Pressure (altimeter): 29.90 inches Hg (1012.6 mb)
[Sea-level pressure: 1011.5 mb]
Winds: from the SSE (160 degrees) at 7 MPH (6 knots; 3.1 m/s)
Visibility: 10 or more miles (16+ km)
Ceiling: at least 12,000 feet AGL
Clouds: sky clear below 12,000 feet AGL
Weather: no significant weather observed at this time

METAR text: KVNY 171851Z 15006KT 10SM CLR 24/14 A2991 RMK AO2 SLP121 T02440139
Conditions at: KVNY (VAN NUYS , CA, US) observed 1851 UTC 17 August 2019
Temperature: 24.4°C (76°F)
Dewpoint: 13.9°C (57°F) [RH = 52%]
Pressure (altimeter): 29.91 inches Hg (1013.0 mb)
[Sea-level pressure: 1012.1 mb]
Winds: from the SSE (150 degrees) at 7 MPH (6 knots; 3.1 m/s)
Visibility: 10 or more miles (16+ km)
Ceiling: at least 12,000 feet AGL
Clouds: sky clear below 12,000 feet AGL
Weather: no significant weather observed at this time

METAR text: KVNY 171751Z 19005KT 10SM CLR 22/14 A2993 RMK AO2 SLP126 T02170139 10228 20178 58001
Conditions at: KVNY (VAN NUYS , CA, US) observed 1751 UTC 17 August 2019
Temperature: 21.7°C (71°F)
Dewpoint: 13.9°C (57°F) [RH = 61%]
Pressure (altimeter): 29.93 inches Hg (1013.6 mb)
[Sea-level pressure: 1012.6 mb]
Winds: from the S (190 degrees) at 6 MPH (5 knots; 2.6 m/s)
Visibility: 10 or more miles (16+ km)
Ceiling: at least 12,000 feet AGL
Clouds: sky clear below 12,000 feet AGL
Weather: no significant weather observed at this time

METAR text: KVNY 171658Z 12004KT 10SM FEW020 21/14 A2993 RMK AO2 T02060139
Conditions at: KVNY (VAN NUYS , CA, US) observed 1658 UTC 17 August 2019
Temperature: 20.6°C (69°F)
Dewpoint: 13.9°C (57°F) [RH = 65%]
Pressure (altimeter): 29.93 inches Hg (1013.6 mb)
Winds: from the ESE (120 degrees) at 5 MPH (4 knots; 2.1 m/s)
Visibility: 10 or more miles (16+ km)
Ceiling: at least 12,000 feet AGL
Clouds: few clouds at 2000 feet AGL
Weather: no significant weather observed at this time

METAR text: KVNY 171651Z 13006KT 10SM BKN018 21/14 A2993 RMK AO2 SLP128 T02060139
Conditions at: KVNY (VAN NUYS , CA, US) observed 1651 UTC 17 August 2019
Temperature: 20.6°C (69°F)
Dewpoint: 13.9°C (57°F) [RH = 65%]
Pressure (altimeter): 29.93 inches Hg (1013.6 mb)
[Sea-level pressure: 1012.8 mb]
Winds: from the SE (130 degrees) at 7 MPH (6 knots; 3.1 m/s)
Visibility: 10 or more miles (16+ km)
Ceiling: 1800 feet AGL
Clouds: broken clouds at 1800 feet AGL
Weather: no significant weather observed at this time

Forecast for: KVNY (VAN NUYS , CA, US)
Text: KVNY 182354Z 1900/1924 16008KT P6SM SCT250
Forecast period: 0000 to 0400 UTC 19 August 2019
Forecast type: FROM: standard forecast or significant change
Winds: from the SSE (160 degrees) at 9 MPH (8 knots; 4.1 m/s)
Visibility: 6 or more miles 10+ km)
Ceiling: at least 12,000 feet AGL
Clouds: scattered clouds at 25000 feet AGL
Weather: no significant weather forecast for this period
Text: FM190400 13003KT P6SM SCT250
Forecast period: 0400 to 1400 UTC 19 August 2019
Forecast type: FROM: standard forecast or significant change
Winds: from the SE (130 degrees) at 3 MPH (3 knots; 1.5 m/s)
Visibility: 6 or more miles 10+ km)
Ceiling: at least 12,000 feet AGL
Clouds: scattered clouds at 25000 feet AGL
Weather: no significant weather forecast for this period
Text: FM191400 VRB03KT 6SM HZ BKN012
Forecast period: 1400 to 1630 UTC 19 August 2019
Forecast type: FROM: standard forecast or significant change
Winds: variable direction winds at 3 MPH (3 knots; 1.5 m/s)
Visibility: 6 miles (10 km)
Ceiling: 1200 feet AGL
Clouds: broken clouds at 1200 feet AGL
Weather: HZ  (haze)
Text: FM191630 14004KT P6SM FEW012
Forecast period: 1630 to 2000 UTC 19 August 2019
Forecast type: FROM: standard forecast or significant change
Winds: from the SE (140 degrees) at 5 MPH (4 knots; 2.1 m/s)
Visibility: 6 or more miles 10+ km)
Ceiling: at least 12,000 feet AGL
Clouds: few clouds at 1200 feet AGL
Weather: no significant weather forecast for this period
Text: FM192000 14008KT P6SM SKC
Forecast period: 2000 UTC 19 August 2019 to 0000 UTC 20 August 2019
Forecast type: FROM: standard forecast or significant change
Winds: from the SE (140 degrees) at 9 MPH (8 knots; 4.1 m/s)
Visibility: 6 or more miles 10+ km)
Clouds: clear skies
Weather: no significant weather forecast for this period